sensor_id;sensor_type;location;lat;lon;timestamp;temperature;humidity
3232;DHT22;1628;48.884;9.210;2024-03-23T18:18:30;25.00;99.90
3232;DHT22;1628;48.884;9.210;2024-03-23T18:20:56;24.10;99.90
3232;DHT22;1628;48.884;9.210;2024-03-23T18:23:25;23.80;99.90
3232;DHT22;1628;48.884;9.210;2024-03-23T18:25:52;23.80;99.90
3232;DHT22;1628;48.884;9.210;2024-03-23T18:28:18;23.80;99.90
3232;DHT22;1628;48.884;9.210;2024-03-23T18:30:45;23.80;99.90
3232;DHT22;1628;48.884;9.210;2024-03-23T18:33:10;23.80;99.90
3232;DHT22;1628;48.884;9.210;2024-03-23T18:35:38;23.80;99.90
3232;DHT22;1628;48.884;9.210;2024-03-23T18:38:04;23.80;99.90
3232;DHT22;1628;48.884;9.210;2024-03-23T18:40:31;23.80;99.90
3232;DHT22;1628;48.884;9.210;2024-03-23T18:42:56;23.90;99.90
3232;DHT22;1628;48.884;9.210;2024-03-23T18:45:23;23.90;99.90
3232;DHT22;1628;48.884;9.210;2024-03-23T18:47:49;23.80;99.90
3232;DHT22;1628;48.884;9.210;2024-03-23T18:50:15;23.70;99.90
3232;DHT22;1628;48.884;9.210;2024-03-23T18:52:42;23.70;99.90
3232;DHT22;1628;48.884;9.210;2024-03-23T18:55:09;23.70;99.90
3232;DHT22;1628;48.884;9.210;2024-03-23T18:57:35;23.60;99.90
3232;DHT22;1628;48.884;9.210;2024-03-23T19:00:02;23.60;99.90
3232;DHT22;1628;48.884;9.210;2024-03-23T19:02:28;23.60;99.90
3232;DHT22;1628;48.884;9.210;2024-03-23T19:04:54;23.60;99.90
3232;DHT22;1628;48.884;9.210;2024-03-23T19:07:20;23.60;99.90
3232;DHT22;1628;48.884;9.210;2024-03-23T19:09:50;23.60;99.90
3232;DHT22;1628;48.884;9.210;2024-03-23T19:12:16;23.60;99.90
3232;DHT22;1628;48.884;9.210;2024-03-23T19:14:42;23.60;99.90
3232;DHT22;1628;48.884;9.210;2024-03-23T19:17:08;23.60;99.90
3232;DHT22;1628;48.884;9.210;2024-03-23T19:19:35;23.60;99.90
3232;DHT22;1628;48.884;9.210;2024-03-23T19:22:01;23.60;99.90
3232;DHT22;1628;48.884;9.210;2024-03-23T19:24:28;23.60;99.90
3232;DHT22;1628;48.884;9.210;2024-03-23T19:26:55;23.60;99.90
3232;DHT22;1628;48.884;9.210;2024-03-23T19:29:21;23.60;99.90
3232;DHT22;1628;48.884;9.210;2024-03-23T19:31:47;23.50;99.90
3232;DHT22;1628;48.884;9.210;2024-03-23T19:34:14;23.50;99.90
3232;DHT22;1628;48.884;9.210;2024-03-23T19:36:41;23.50;99.90
3232;DHT22;1628;48.884;9.210;2024-03-23T19:39:07;23.50;99.90
3232;DHT22;1628;48.884;9.210;2024-03-23T19:41:34;23.50;99.90
3232;DHT22;1628;48.884;9.210;2024-03-23T19:44:01;23.50;99.90
3232;DHT22;1628;48.884;9.210;2024-03-23T19:46:27;23.50;99.90
3232;DHT22;1628;48.884;9.210;2024-03-23T19:48:53;23.50;99.90
3232;DHT22;1628;48.884;9.210;2024-03-23T19:51:20;23.50;99.90
3232;DHT22;1628;48.884;9.210;2024-03-23T19:53:49;23.50;99.90
3232;DHT22;1628;48.884;9.210;2024-03-23T19:56:16;23.50;99.90
3232;DHT22;1628;48.884;9.210;2024-03-23T19:58:42;23.50;99.90
3232;DHT22;1628;48.884;9.210;2024-03-23T20:01:14;23.50;99.90
3232;DHT22;1628;48.884;9.210;2024-03-23T20:03:40;23.60;99.90
3232;DHT22;1628;48.884;9.210;2024-03-23T20:06:06;23.60;99.90
3232;DHT22;1628;48.884;9.210;2024-03-23T20:08:33;23.60;99.90
3232;DHT22;1628;48.884;9.210;2024-03-23T20:11:00;23.60;99.90
3232;DHT22;1628;48.884;9.210;2024-03-23T20:13:26;23.60;99.90
3232;DHT22;1628;48.884;9.210;2024-03-23T20:15:53;23.60;99.90
3232;DHT22;1628;48.884;9.210;2024-03-23T20:18:20;23.60;99.90
3232;DHT22;1628;48.884;9.210;2024-03-23T20:20:47;23.60;99.90
3232;DHT22;1628;48.884;9.210;2024-03-23T20:23:15;23.60;99.90
3232;DHT22;1628;48.884;9.210;2024-03-23T20:25:50;23.60;99.90
3232;DHT22;1628;48.884;9.210;2024-03-23T20:28:15;23.60;99.90
3232;DHT22;1628;48.884;9.210;2024-03-23T20:30:42;23.60;99.90
3232;DHT22;1628;48.884;9.210;2024-03-23T20:33:08;23.60;99.90
3232;DHT22;1628;48.884;9.210;2024-03-23T20:35:36;23.60;99.90
3232;DHT22;1628;48.884;9.210;2024-03-23T20:38:02;23.60;99.90
3232;DHT22;1628;48.884;9.210;2024-03-23T20:40:29;23.60;99.90
3232;DHT22;1628;48.884;9.210;2024-03-23T20:42:55;23.60;99.90
3232;DHT22;1628;48.884;9.210;2024-03-23T20:45:32;23.60;99.90
3232;DHT22;1628;48.884;9.210;2024-03-23T20:47:58;23.60;99.90
3232;DHT22;1628;48.884;9.210;2024-03-23T20:50:25;23.60;99.90
3232;DHT22;1628;48.884;9.210;2024-03-23T20:52:52;23.60;99.90
3232;DHT22;1628;48.884;9.210;2024-03-23T20:55:19;23.60;99.90
3232;DHT22;1628;48.884;9.210;2024-03-23T20:57:45;23.60;99.90
3232;DHT22;1628;48.884;9.210;2024-03-23T21:00:13;23.60;99.90
3232;DHT22;1628;48.884;9.210;2024-03-23T21:02:39;23.60;99.90
3232;DHT22;1628;48.884;9.210;2024-03-23T21:05:07;23.60;99.90
3232;DHT22;1628;48.884;9.210;2024-03-23T21:07:33;23.60;99.90
3232;DHT22;1628;48.884;9.210;2024-03-23T21:10:02;23.60;99.90
3232;DHT22;1628;48.884;9.210;2024-03-23T21:12:28;23.60;99.90
3232;DHT22;1628;48.884;9.210;2024-03-23T21:14:54;23.60;99.90
3232;DHT22;1628;48.884;9.210;2024-03-23T21:17:20;23.60;99.90
3232;DHT22;1628;48.884;9.210;2024-03-23T21:19:47;23.60;99.90
3232;DHT22;1628;48.884;9.210;2024-03-23T21:22:13;23.60;99.90
3232;DHT22;1628;48.884;9.210;2024-03-23T21:24:39;23.60;99.90
3232;DHT22;1628;48.884;9.210;2024-03-23T21:27:06;23.60;99.90
3232;DHT22;1628;48.884;9.210;2024-03-23T21:29:33;23.60;99.90
3232;DHT22;1628;48.884;9.210;2024-03-23T21:31:58;23.70;99.90
3232;DHT22;1628;48.884;9.210;2024-03-23T21:34:25;23.60;99.90
3232;DHT22;1628;48.884;9.210;2024-03-23T21:36:53;23.40;99.90
3232;DHT22;1628;48.884;9.210;2024-03-23T21:39:19;23.30;99.90
3232;DHT22;1628;48.884;9.210;2024-03-23T21:41:45;23.40;99.90
3232;DHT22;1628;48.884;9.210;2024-03-23T21:44:14;23.50;99.90
3232;DHT22;1628;48.884;9.210;2024-03-23T21:46:39;23.60;99.90
3232;DHT22;1628;48.884;9.210;2024-03-23T21:49:06;23.60;99.90
3232;DHT22;1628;48.884;9.210;2024-03-23T21:51:32;23.60;99.90
3232;DHT22;1628;48.884;9.210;2024-03-23T21:54:00;23.70;99.90
3232;DHT22;1628;48.884;9.210;2024-03-23T21:56:28;23.70;99.90
3232;DHT22;1628;48.884;9.210;2024-03-23T21:58:57;23.70;99.90
3232;DHT22;1628;48.884;9.210;2024-03-23T22:01:24;23.70;99.90
3232;DHT22;1628;48.884;9.210;2024-03-23T22:03:50;23.70;99.90
3232;DHT22;1628;48.884;9.210;2024-03-23T22:06:17;23.80;99.90
3232;DHT22;1628;48.884;9.210;2024-03-23T22:08:44;23.80;99.90
